Time;durP1;ratioP1;P1;durP2;ratioP2;P2;SDS_P1;SDS_P2;PMS_P1;PMS_P2;Temp;Humidity;BMP_temperature;BMP_pressure;BME280_temperature;BME280_humidity;BME280_pressure;Samples;Min_cycle;Max_cycle;Signal;HPM_P1;HPM_P2
2021/03/31 00:00:36;;;;;;;5.18;3.42;;;13.80;94.20;;;;;;4828497;29;20054;-79
2021/03/31 00:03:08;;;;;;;4.70;3.67;;;13.80;94.30;;;;;;4815970;29;20106;-77
2021/03/31 00:05:35;;;;;;;6.45;3.58;;;13.70;94.30;;;;;;4825312;29;20053;-78
2021/03/31 00:08:03;;;;;;;5.70;3.65;;;13.70;94.90;;;;;;4830155;29;20046;-76
2021/03/31 00:10:34;;;;;;;6.10;3.95;;;13.90;94.60;;;;;;4829364;29;20304;-78
2021/03/31 00:13:02;;;;;;;5.32;4.40;;;13.90;94.60;;;;;;4816759;29;20050;-78
2021/03/31 00:15:31;;;;;;;7.32;5.45;;;13.90;94.70;;;;;;4832732;29;20278;-78
2021/03/31 00:18:05;;;;;;;6.57;4.35;;;14.00;94.70;;;;;;4832892;29;20065;-78
2021/03/31 00:20:33;;;;;;;6.07;4.72;;;13.90;95.10;;;;;;4829650;29;20045;-78
2021/03/31 00:23:03;;;;;;;5.70;4.18;;;13.70;96.20;;;;;;4834952;29;20058;-78
2021/03/31 00:25:31;;;;;;;5.82;4.25;;;13.70;96.70;;;;;;4811287;29;20050;-78
2021/03/31 00:27:59;;;;;;;6.00;4.43;;;13.70;96.70;;;;;;4818401;29;20042;-78
2021/03/31 00:30:28;;;;;;;6.55;4.18;;;13.80;96.70;;;;;;4814632;29;20056;-78
2021/03/31 00:32:55;;;;;;;5.57;3.58;;;13.80;96.30;;;;;;4813858;29;20064;-77
2021/03/31 00:35:23;;;;;;;5.05;4.13;;;13.80;96.10;;;;;;4815098;29;20535;-77
2021/03/31 00:37:50;;;;;;;5.95;3.83;;;13.80;95.90;;;;;;4813263;29;20133;-78
2021/03/31 00:40:21;;;;;;;4.88;3.40;;;13.80;95.40;;;;;;4820325;29;20075;-76
2021/03/31 00:42:49;;;;;;;4.63;3.38;;;13.60;95.70;;;;;;4815908;29;20800;-77
2021/03/31 00:45:17;;;;;;;3.25;2.78;;;13.60;96.10;;;;;;4819379;29;20146;-77
2021/03/31 00:47:45;;;;;;;4.28;3.15;;;13.50;95.40;;;;;;4815370;29;20896;-78
2021/03/31 00:50:14;;;;;;;4.57;3.10;;;13.40;95.30;;;;;;4814555;29;20550;-78
2021/03/31 00:52:43;;;;;;;3.67;2.80;;;13.50;94.90;;;;;;4831969;29;20045;-78
2021/03/31 00:55:12;;;;;;;4.15;2.78;;;13.40;94.70;;;;;;4815496;29;20069;-77
2021/03/31 00:57:40;;;;;;;5.18;2.78;;;13.30;94.60;;;;;;4833100;29;20046;-78
2021/03/31 01:00:11;;;;;;;4.15;2.72;;;13.30;94.70;;;;;;4817553;29;20136;-78
2021/03/31 01:02:39;;;;;;;3.53;2.58;;;13.30;94.70;;;;;;4826652;29;20098;-77
2021/03/31 01:05:08;;;;;;;4.13;2.67;;;13.20;95.00;;;;;;4818904;29;20034;-77
2021/03/31 01:07:36;;;;;;;4.07;2.65;;;13.20;95.30;;;;;;4814323;29;20042;-78
2021/03/31 01:10:06;;;;;;;5.78;3.25;;;13.20;95.10;;;;;;4832215;29;20046;-77
2021/03/31 01:12:50;;;;;;;5.70;3.47;;;13.20;95.20;;;;;;4826405;29;20106;-78
2021/03/31 01:15:22;;;;;;;4.57;3.05;;;13.20;95.40;;;;;;4817575;29;20050;-77
2021/03/31 01:17:57;;;;;;;3.63;3.33;;;13.10;95.60;;;;;;4813249;29;20527;-78
2021/03/31 01:20:42;;;;;;;5.82;3.90;;;13.10;95.70;;;;;;4827859;29;20046;-78
2021/03/31 01:23:35;;;;;;;4.85;3.58;;;13.10;96.00;;;;;;4828869;29;20057;-78
2021/03/31 01:26:07;;;;;;;8.48;4.25;;;13.00;96.20;;;;;;4814790;29;20066;-78
2021/03/31 01:28:45;;;;;;;4.50;3.92;;;12.90;96.60;;;;;;4814245;29;20297;-78
2021/03/31 01:31:31;;;;;;;7.50;4.22;;;12.80;96.70;;;;;;4836972;29;20045;-77
2021/03/31 01:34:11;;;;;;;4.55;3.88;;;12.80;96.70;;;;;;4818113;29;20107;-77
2021/03/31 01:36:42;;;;;;;5.05;4.00;;;12.70;96.70;;;;;;4814983;29;20061;-77
2021/03/31 01:39:11;;;;;;;6.90;3.97;;;12.60;96.70;;;;;;4838476;29;20140;-78
2021/03/31 01:41:39;;;;;;;4.97;3.78;;;12.60;96.70;;;;;;4833657;29;20046;-78
2021/03/31 01:44:10;;;;;;;7.72;3.80;;;12.60;96.70;;;;;;4818036;29;20053;-78
2021/03/31 01:46:40;;;;;;;4.88;4.00;;;12.60;96.70;;;;;;4829296;29;20074;-78
2021/03/31 01:49:08;;;;;;;4.22;3.70;;;12.60;96.70;;;;;;4819519;29;20169;-78
2021/03/31 01:51:38;;;;;;;6.47;3.83;;;12.60;96.70;;;;;;4833896;29;20392;-78
2021/03/31 01:54:07;;;;;;;7.70;3.95;;;12.50;96.70;;;;;;4837951;29;20501;-77
2021/03/31 01:56:35;;;;;;;6.38;3.75;;;12.60;96.70;;;;;;4818252;29;20782;-78
2021/03/31 01:59:03;;;;;;;6.55;3.67;;;12.50;96.70;;;;;;4818866;29;20065;-78
2021/03/31 02:01:32;;;;;;;5.05;3.35;;;12.40;96.70;;;;;;4833714;29;20122;-79
2021/03/31 02:04:00;;;;;;;4.63;3.45;;;12.40;96.70;;;;;;4820097;29;20057;-78
2021/03/31 02:06:29;;;;;;;3.58;3.28;;;12.50;96.70;;;;;;4831677;29;20532;-78
2021/03/31 02:08:58;;;;;;;5.60;3.28;;;12.50;96.70;;;;;;4818297;29;20087;-77
2021/03/31 02:11:28;;;;;;;3.88;3.15;;;12.50;96.70;;;;;;4814943;29;20442;-78
2021/03/31 02:13:56;;;;;;;5.90;3.35;;;12.50;96.70;;;;;;4835321;29;20037;-78
2021/03/31 02:16:25;;;;;;;3.97;3.05;;;12.50;96.70;;;;;;4787711;29;20265;-78
2021/03/31 02:18:53;;;;;;;3.88;3.42;;;12.40;96.70;;;;;;4829537;29;20327;-78
2021/03/31 02:21:22;;;;;;;7.95;2.97;;;12.40;96.70;;;;;;4818463;29;20053;-78
2021/03/31 02:23:49;;;;;;;3.60;2.60;;;12.30;96.70;;;;;;4817555;29;20587;-78
2021/03/31 02:26:17;;;;;;;3.78;2.85;;;12.20;96.70;;;;;;4819087;29;20094;-77
2021/03/31 02:28:45;;;;;;;4.60;2.58;;;12.20;96.70;;;;;;4832106;29;20061;-78
2021/03/31 02:31:15;;;;;;;3.33;2.67;;;12.10;96.70;;;;;;4820226;29;20236;-78
2021/03/31 02:33:44;;;;;;;3.72;2.38;;;12.10;96.70;;;;;;4814071;29;20058;-78
2021/03/31 02:36:12;;;;;;;3.60;2.25;;;12.10;96.70;;;;;;4818609;29;20045;-78
2021/03/31 02:38:40;;;;;;;3.80;2.45;;;12.10;96.70;;;;;;4831897;29;20098;-78
2021/03/31 02:41:08;;;;;;;3.95;2.90;;;12.10;96.70;;;;;;4831137;29;20073;-78
2021/03/31 02:43:41;;;;;;;3.80;2.65;;;12.10;96.70;;;;;;4831738;29;20053;-78
2021/03/31 02:46:16;;;;;;;3.03;2.35;;;12.10;96.70;;;;;;4818020;29;20046;-78
2021/03/31 02:48:44;;;;;;;4.18;2.80;;;12.00;96.70;;;;;;4815933;29;20130;-78
2021/03/31 02:51:13;;;;;;;4.47;2.40;;;11.90;96.70;;;;;;4817855;29;20173;-74
2021/03/31 02:53:41;;;;;;;4.70;2.97;;;11.80;96.70;;;;;;4832211;29;20066;-74
2021/03/31 02:56:12;;;;;;;4.25;2.97;;;11.80;96.70;;;;;;4832871;29;20046;-74
2021/03/31 02:58:42;;;;;;;3.40;2.63;;;11.80;96.70;;;;;;4827192;29;20046;-75
2021/03/31 03:01:10;;;;;;;5.15;2.78;;;11.80;96.70;;;;;;4813015;29;20605;-75
2021/03/31 03:03:38;;;;;;;3.90;2.75;;;11.80;96.70;;;;;;4830492;29;20145;-74
2021/03/31 03:06:06;;;;;;;4.60;2.47;;;11.70;96.70;;;;;;4834066;29;20408;-74
2021/03/31 03:08:35;;;;;;;5.78;2.88;;;11.70;96.70;;;;;;4817320;29;20198;-74
2021/03/31 03:11:04;;;;;;;5.05;3.28;;;11.70;96.70;;;;;;4831197;29;20197;-72
2021/03/31 03:13:32;;;;;;;7.65;3.17;;;11.70;96.70;;;;;;4819425;29;20034;-74
2021/03/31 03:16:01;;;;;;;4.20;3.10;;;11.60;96.70;;;;;;4830449;29;20042;-74
2021/03/31 03:18:29;;;;;;;8.60;3.60;;;11.60;96.70;;;;;;4815025;29;20596;-74
2021/03/31 03:20:57;;;;;;;4.18;2.70;;;11.60;96.70;;;;;;4819500;29;20057;-74
2021/03/31 03:23:24;;;;;;;3.15;2.70;;;11.60;96.70;;;;;;4817133;29;20265;-74
2021/03/31 03:26:13;;;;;;;4.88;2.70;;;11.50;96.70;;;;;;4829219;29;20057;-74
2021/03/31 03:28:42;;;;;;;7.10;3.35;;;11.50;96.70;;;;;;4815336;29;20046;-74
2021/03/31 03:31:10;;;;;;;4.03;2.70;;;11.50;96.70;;;;;;4831672;29;20126;-74
2021/03/31 03:33:39;;;;;;;4.63;2.58;;;11.50;96.70;;;;;;4833594;29;20084;-75
2021/03/31 03:36:10;;;;;;;3.65;2.67;;;11.40;96.70;;;;;;4815126;29;20046;-74
2021/03/31 03:38:38;;;;;;;4.68;3.35;;;11.40;96.70;;;;;;4829353;29;20061;-74
2021/03/31 03:41:06;;;;;;;6.10;3.30;;;11.40;96.70;;;;;;4827804;29;20560;-74
2021/03/31 03:43:34;;;;;;;6.00;3.67;;;11.40;96.70;;;;;;4834439;29;20050;-74
2021/03/31 03:46:04;;;;;;;5.82;3.80;;;11.40;96.70;;;;;;4828167;29;20053;-74
2021/03/31 03:48:32;;;;;;;5.97;3.63;;;11.40;96.70;;;;;;4832091;29;20125;-74
2021/03/31 03:51:00;;;;;;;6.13;3.67;;;11.50;96.70;;;;;;4827990;29;20060;-74
2021/03/31 03:53:28;;;;;;;4.43;3.72;;;11.50;96.70;;;;;;4814261;29;20054;-74
2021/03/31 03:55:56;;;;;;;5.93;3.58;;;11.50;96.70;;;;;;4828495;29;20042;-74
2021/03/31 03:58:25;;;;;;;5.30;3.70;;;11.40;96.70;;;;;;4841251;29;20467;-74
2021/03/31 04:00:53;;;;;;;4.13;3.72;;;11.40;96.70;;;;;;4814179;29;20141;-74
2021/03/31 04:03:21;;;;;;;4.40;2.88;;;11.40;96.70;;;;;;4833071;29;20042;-74
2021/03/31 04:05:48;;;;;;;4.43;2.85;;;11.40;96.70;;;;;;4812586;29;20500;-74
2021/03/31 04:08:16;;;;;;;5.13;3.40;;;11.30;96.70;;;;;;4816287;29;20125;-74
2021/03/31 04:10:50;;;;;;;3.65;3.30;;;11.30;96.70;;;;;;4815930;29;20050;-74
2021/03/31 04:13:18;;;;;;;6.40;3.60;;;11.30;96.70;;;;;;4814007;29;20133;-74
2021/03/31 04:15:47;;;;;;;5.45;3.30;;;11.20;96.70;;;;;;4815966;29;20132;-74
2021/03/31 04:18:15;;;;;;;6.55;3.58;;;11.10;96.70;;;;;;4827439;29;20061;-74
2021/03/31 04:20:45;;;;;;;5.32;3.30;;;11.10;96.70;;;;;;4830429;29;20135;-74
2021/03/31 04:23:13;;;;;;;4.50;3.08;;;11.10;96.70;;;;;;4809173;29;20066;-74
2021/03/31 04:25:41;;;;;;;4.18;3.42;;;11.10;96.70;;;;;;4812145;29;20053;-74
2021/03/31 04:28:11;;;;;;;5.57;3.58;;;11.10;96.70;;;;;;4814830;29;20046;-74
2021/03/31 04:30:39;;;;;;;6.00;3.47;;;11.10;96.70;;;;;;4813044;29;20058;-74
2021/03/31 04:33:10;;;;;;;5.07;3.42;;;10.90;96.70;;;;;;4811897;29;20451;-74
2021/03/31 04:35:37;;;;;;;6.03;3.05;;;10.90;96.70;;;;;;4814957;29;20046;-73
2021/03/31 04:38:08;;;;;;;5.60;3.15;;;10.90;96.70;;;;;;4810480;29;20512;-74
2021/03/31 04:40:49;;;;;;;6.28;3.42;;;10.80;96.70;;;;;;4811235;29;20073;-74
2021/03/31 04:43:16;;;;;;;3.55;2.90;;;10.80;96.70;;;;;;4814194;29;20487;-74
2021/03/31 04:45:44;;;;;;;5.80;3.08;;;10.80;96.70;;;;;;4821215;29;20049;-74
2021/03/31 04:48:11;;;;;;;5.25;2.85;;;10.70;96.70;;;;;;4812719;29;20867;-74
2021/03/31 04:50:39;;;;;;;4.15;3.10;;;10.70;96.70;;;;;;4811632;29;20130;-74
2021/03/31 04:53:07;;;;;;;8.05;3.40;;;10.70;96.70;;;;;;4822883;29;20055;-74
2021/03/31 04:55:34;;;;;;;4.03;2.90;;;10.60;96.70;;;;;;4813100;29;20043;-74
2021/03/31 04:58:03;;;;;;;3.78;2.67;;;10.60;96.70;;;;;;4811773;29;20066;-74
2021/03/31 05:00:30;;;;;;;4.03;3.00;;;10.60;96.70;;;;;;4811953;29;20124;-74
2021/03/31 05:02:57;;;;;;;7.07;3.60;;;10.60;96.70;;;;;;4812447;29;20099;-74
2021/03/31 05:05:24;;;;;;;7.00;3.20;;;10.50;96.70;;;;;;4816044;29;20183;-74
2021/03/31 05:07:51;;;;;;;6.22;3.67;;;10.50;96.70;;;;;;4814184;29;20133;-74
2021/03/31 05:10:19;;;;;;;5.57;2.90;;;10.60;96.70;;;;;;4818169;29;20129;-74
2021/03/31 05:12:46;;;;;;;4.80;2.75;;;10.50;96.70;;;;;;4818481;29;20512;-74
2021/03/31 05:15:16;;;;;;;8.38;2.97;;;10.40;96.70;;;;;;4819976;29;20060;-74
2021/03/31 05:17:43;;;;;;;6.88;3.28;;;10.40;96.70;;;;;;4811130;29;20043;-74
2021/03/31 05:20:12;;;;;;;3.78;2.90;;;10.40;96.70;;;;;;4831193;29;20081;-74
2021/03/31 05:22:39;;;;;;;9.60;3.20;;;10.40;96.70;;;;;;4825954;29;20046;-73
2021/03/31 05:25:07;;;;;;;3.30;2.78;;;10.30;96.70;;;;;;4819171;29;20553;-74
2021/03/31 05:27:35;;;;;;;6.32;3.22;;;10.40;96.70;;;;;;4833751;29;20936;-73
2021/03/31 05:30:05;;;;;;;6.38;3.33;;;10.50;96.70;;;;;;4817124;29;20141;-74
2021/03/31 05:32:33;;;;;;;7.30;3.50;;;10.40;96.70;;;;;;4815011;29;20129;-73
2021/03/31 05:35:00;;;;;;;3.90;3.10;;;10.40;96.70;;;;;;4833499;29;20053;-73
2021/03/31 05:37:27;;;;;;;5.93;3.83;;;10.40;96.70;;;;;;4818974;29;20041;-74
2021/03/31 05:39:55;;;;;;;7.47;3.78;;;10.50;96.70;;;;;;4816864;29;20056;-74
2021/03/31 05:42:28;;;;;;;5.60;3.45;;;10.50;96.70;;;;;;4802558;29;20409;-74
2021/03/31 05:44:56;;;;;;;5.05;3.78;;;10.60;96.70;;;;;;4831381;29;20129;-74
2021/03/31 05:47:33;;;;;;;5.78;3.60;;;10.70;96.70;;;;;;4833128;29;20405;-73
2021/03/31 05:50:03;;;;;;;5.25;3.95;;;10.70;96.70;;;;;;4833394;29;20054;-73
2021/03/31 05:52:30;;;;;;;7.50;3.95;;;10.80;96.70;;;;;;4834825;29;20049;-73
2021/03/31 05:55:01;;;;;;;7.13;4.10;;;10.80;96.70;;;;;;4830793;29;20041;-73
2021/03/31 05:57:32;;;;;;;9.65;4.43;;;10.80;96.70;;;;;;4815583;29;20046;-73
2021/03/31 06:00:00;;;;;;;6.55;3.88;;;10.80;96.70;;;;;;4832684;29;20054;-73
2021/03/31 06:02:39;;;;;;;6.60;3.80;;;10.80;96.70;;;;;;4818335;29;20476;-73
2021/03/31 06:05:09;;;;;;;8.35;4.20;;;10.90;96.70;;;;;;4828531;29;20411;-73
2021/03/31 06:07:40;;;;;;;11.75;4.30;;;10.90;96.70;;;;;;4818880;29;20050;-73
2021/03/31 06:10:13;;;;;;;7.10;4.68;;;10.80;96.70;;;;;;4817595;29;20046;-73
2021/03/31 06:12:43;;;;;;;11.13;4.68;;;10.90;96.70;;;;;;4821226;29;20070;-72
2021/03/31 06:15:17;;;;;;;7.65;5.15;;;10.90;96.70;;;;;;4831883;29;20045;-73
2021/03/31 06:17:46;;;;;;;7.53;4.80;;;11.00;96.70;;;;;;4821427;29;20042;-73
2021/03/31 06:20:39;;;;;;;6.40;5.25;;;11.10;96.70;;;;;;4828183;29;20146;-74
2021/03/31 06:23:17;;;;;;;6.30;4.55;;;11.10;96.70;;;;;;4815664;29;20073;-73
2021/03/31 06:25:48;;;;;;;6.85;4.93;;;11.20;96.70;;;;;;4817021;29;20038;-73
2021/03/31 06:28:29;;;;;;;8.90;5.45;;;11.20;96.70;;;;;;4811964;29;20175;-73
2021/03/31 06:31:17;;;;;;;9.68;5.15;;;11.30;96.70;;;;;;4811841;29;20453;-74
2021/03/31 06:33:46;;;;;;;11.40;6.03;;;11.50;96.70;;;;;;4814269;29;20046;-73
2021/03/31 06:36:16;;;;;;;8.05;5.53;;;11.60;96.70;;;;;;4814838;29;20118;-74
2021/03/31 06:38:47;;;;;;;8.80;5.00;;;11.70;96.70;;;;;;4808830;29;20501;-73
2021/03/31 06:41:26;;;;;;;6.38;5.38;;;11.70;96.70;;;;;;4826792;29;20061;-73
2021/03/31 06:44:04;;;;;;;7.72;5.18;;;11.70;96.70;;;;;;4811183;29;20046;-74
2021/03/31 06:46:41;;;;;;;9.18;5.07;;;11.80;96.70;;;;;;4804573;29;20056;-74
2021/03/31 06:49:10;;;;;;;8.20;5.05;;;11.90;96.70;;;;;;4825784;29;20061;-73
2021/03/31 06:51:38;;;;;;;9.07;5.40;;;12.10;96.70;;;;;;4800431;29;20525;-74
2021/03/31 06:54:21;;;;;;;7.63;5.43;;;12.10;96.70;;;;;;4812552;29;20418;-73
2021/03/31 06:56:55;;;;;;;5.15;4.65;;;12.20;96.70;;;;;;4811602;29;20054;-73
2021/03/31 06:59:27;;;;;;;8.48;5.32;;;12.20;96.70;;;;;;4825939;29;20054;-74
2021/03/31 07:01:56;;;;;;;6.38;4.95;;;12.20;96.70;;;;;;4813540;29;20100;-74
2021/03/31 07:04:25;;;;;;;6.72;5.30;;;12.40;96.70;;;;;;4832062;29;20038;-73
2021/03/31 07:07:03;;;;;;;9.77;5.28;;;12.40;96.70;;;;;;4809995;29;20108;-73
2021/03/31 07:09:32;;;;;;;6.25;4.85;;;12.60;96.70;;;;;;4815242;29;20420;-73
2021/03/31 07:11:59;;;;;;;7.40;5.03;;;12.70;96.70;;;;;;4815243;29;20142;-73
2021/03/31 07:14:28;;;;;;;8.25;5.20;;;12.80;96.70;;;;;;4814143;29;20146;-74
2021/03/31 07:16:57;;;;;;;8.07;5.22;;;12.80;96.70;;;;;;4811910;29;20053;-74
2021/03/31 07:19:26;;;;;;;6.95;4.63;;;13.00;96.70;;;;;;4795635;29;20145;-73
2021/03/31 07:22:11;;;;;;;8.60;4.97;;;13.10;96.70;;;;;;4820403;29;20145;-74
2021/03/31 07:24:38;;;;;;;8.63;4.90;;;13.20;96.70;;;;;;4830702;29;20612;-74
2021/03/31 07:27:07;;;;;;;7.75;5.60;;;13.30;96.70;;;;;;4831029;29;20054;-74
2021/03/31 07:29:37;;;;;;;11.93;5.93;;;13.40;96.70;;;;;;4831839;29;20057;-74
2021/03/31 07:32:08;;;;;;;7.35;5.18;;;13.50;96.70;;;;;;4816966;29;20048;-77
2021/03/31 07:34:38;;;;;;;7.40;4.75;;;13.50;96.70;;;;;;4820079;29;20106;-74
2021/03/31 07:37:28;;;;;;;8.88;5.43;;;13.60;96.70;;;;;;4823340;29;20090;-73
2021/03/31 07:39:57;;;;;;;6.82;4.93;;;13.70;96.70;;;;;;4817076;29;20675;-74
2021/03/31 07:42:26;;;;;;;6.78;5.20;;;13.80;96.70;;;;;;4814958;29;20347;-74
2021/03/31 07:44:55;;;;;;;9.35;6.35;;;13.90;96.70;;;;;;4833938;29;20520;-75
2021/03/31 07:47:23;;;;;;;10.60;6.97;;;13.90;96.70;;;;;;4829649;29;20072;-74
2021/03/31 07:49:51;;;;;;;7.68;5.55;;;14.00;96.70;;;;;;4829993;29;20045;-74
2021/03/31 07:52:19;;;;;;;9.93;6.10;;;14.20;96.70;;;;;;4829651;29;20444;-74
2021/03/31 07:54:47;;;;;;;7.90;6.57;;;14.30;96.70;;;;;;4832392;29;20389;-74
2021/03/31 07:57:32;;;;;;;14.15;6.22;;;14.40;96.70;;;;;;4830746;29;20522;-74
2021/03/31 07:59:59;;;;;;;8.07;6.05;;;14.50;96.70;;;;;;4829883;29;20106;-74
2021/03/31 08:02:28;;;;;;;9.82;6.32;;;14.70;96.70;;;;;;4833037;29;20490;-74
2021/03/31 08:05:07;;;;;;;9.35;5.78;;;14.70;96.70;;;;;;4830498;29;20037;-74
2021/03/31 08:07:34;;;;;;;10.02;5.95;;;14.90;96.70;;;;;;4828952;29;20045;-74
2021/03/31 08:10:32;;;;;;;7.20;5.05;;;15.00;96.70;;;;;;4832307;29;20057;-73
2021/03/31 08:13:25;;;;;;;6.63;4.50;;;15.20;95.50;;;;;;4816598;29;20056;-74
2021/03/31 08:15:53;;;;;;;7.75;4.25;;;15.30;94.50;;;;;;4831743;29;20106;-74
2021/03/31 08:18:23;;;;;;;7.38;4.50;;;15.40;94.50;;;;;;4818930;29;20054;-74
2021/03/31 08:20:51;;;;;;;6.45;3.75;;;15.50;94.40;;;;;;4829150;29;20449;-74
2021/03/31 08:23:48;;;;;;;7.13;4.40;;;15.60;94.20;;;;;;4811543;29;20070;-74
2021/03/31 08:26:30;;;;;;;;;;;15.70;93.90;;;;;;4807462;29;20135;-75
2021/03/31 08:29:00;;;;;;;5.25;3.88;;;15.80;93.60;;;;;;4811110;29;19932;-75
2021/03/31 08:31:28;;;;;;;7.38;4.18;;;15.90;92.60;;;;;;4810835;29;20046;-74
2021/03/31 08:33:57;;;;;;;8.73;4.22;;;16.00;91.70;;;;;;4811081;29;20050;-74
2021/03/31 08:36:24;;;;;;;8.45;4.60;;;16.00;91.90;;;;;;4809661;29;20059;-74
2021/03/31 08:38:53;;;;;;;6.25;4.63;;;16.10;91.50;;;;;;4796502;29;20053;-74
2021/03/31 08:41:23;;;;;;;8.02;5.30;;;16.30;90.60;;;;;;4810609;29;20046;-74
2021/03/31 08:44:09;;;;;;;6.32;4.53;;;16.40;90.40;;;;;;4813701;29;20056;-75
2021/03/31 08:46:40;;;;;;;9.35;5.57;;;16.50;90.60;;;;;;4811862;29;20114;-75
2021/03/31 08:49:21;;;;;;;8.25;4.90;;;16.80;90.40;;;;;;4810305;29;20125;-79
2021/03/31 08:51:50;;;;;;;10.30;5.70;;;17.00;89.30;;;;;;4812536;29;20049;-77
2021/03/31 08:54:18;;;;;;;8.95;4.70;;;17.10;89.10;;;;;;4808378;29;20132;-81
2021/03/31 08:56:48;;;;;;;10.07;4.65;;;17.20;88.30;;;;;;4813152;29;20130;-82
2021/03/31 08:59:30;;;;;;;7.13;4.82;;;17.10;88.20;;;;;;4811563;29;20564;-81
2021/03/31 09:01:59;;;;;;;6.13;4.30;;;17.20;87.80;;;;;;4801226;29;20054;-80
2021/03/31 09:04:26;;;;;;;10.75;5.68;;;17.40;88.10;;;;;;4815383;29;20042;-78
2021/03/31 09:06:54;;;;;;;7.13;4.65;;;17.40;88.10;;;;;;4825791;29;20042;-79
2021/03/31 09:09:22;;;;;;;7.82;4.72;;;17.50;87.70;;;;;;4808287;29;20043;-79
2021/03/31 09:11:58;;;;;;;9.75;4.65;;;17.50;87.30;;;;;;4807945;29;20700;-79
2021/03/31 09:14:27;;;;;;;7.55;5.05;;;17.60;87.20;;;;;;4815358;29;20134;-75
2021/03/31 09:16:57;;;;;;;6.63;4.43;;;17.80;87.40;;;;;;4809944;29;20048;-75
2021/03/31 09:19:29;;;;;;;8.48;4.00;;;17.90;86.60;;;;;;4814266;29;20066;-74
2021/03/31 09:21:57;;;;;;;7.93;4.35;;;18.00;86.30;;;;;;4804416;29;20573;-74
2021/03/31 09:24:27;;;;;;;8.38;4.78;;;18.00;85.90;;;;;;4793418;29;20047;-75
2021/03/31 09:26:56;;;;;;;9.43;4.72;;;18.20;86.10;;;;;;4781527;29;20043;-75
2021/03/31 09:29:24;;;;;;;6.03;4.55;;;18.40;86.10;;;;;;4777129;29;20042;-74
2021/03/31 09:31:53;;;;;;;6.97;4.45;;;18.50;86.00;;;;;;4777634;29;20051;-75
2021/03/31 09:34:22;;;;;;;9.75;4.07;;;18.50;85.60;;;;;;4792782;29;20115;-75
2021/03/31 09:37:03;;;;;;;7.00;3.80;;;18.60;85.00;;;;;;4793507;29;20040;-75
2021/03/31 09:39:38;;;;;;;7.75;4.30;;;18.80;83.40;;;;;;4794770;29;20050;-75
2021/03/31 09:42:08;;;;;;;5.90;3.90;;;19.00;84.00;;;;;;4793134;29;20062;-75
2021/03/31 09:44:37;;;;;;;8.20;4.65;;;19.10;84.40;;;;;;4805628;29;20154;-74
2021/03/31 09:47:04;;;;;;;7.95;4.63;;;19.20;83.90;;;;;;4791731;29;20541;-74
2021/03/31 09:49:31;;;;;;;4.43;3.85;;;19.20;83.20;;;;;;4811611;29;20443;-76
2021/03/31 09:52:01;;;;;;;9.90;4.07;;;19.40;82.10;;;;;;4794435;29;20429;-75
2021/03/31 09:54:28;;;;;;;9.10;3.90;;;19.60;81.30;;;;;;4798769;29;20625;-75
2021/03/31 09:56:56;;;;;;;8.57;3.75;;;19.80;81.00;;;;;;4794750;29;20117;-75
2021/03/31 09:59:25;;;;;;;6.53;3.10;;;19.90;80.20;;;;;;4795799;29;20111;-75
2021/03/31 10:01:53;;;;;;;5.40;3.35;;;19.90;79.30;;;;;;4795934;29;20046;-75
2021/03/31 10:04:21;;;;;;;8.00;3.53;;;20.10;78.40;;;;;;4810853;29;20050;-74
2021/03/31 10:07:14;;;;;;;5.78;3.55;;;20.20;78.80;;;;;;4792845;29;20495;-75
2021/03/31 10:10:02;;;;;;;6.00;3.30;;;20.30;77.30;;;;;;4794557;29;20250;-74
2021/03/31 10:12:32;;;;;;;4.68;2.55;;;20.60;77.90;;;;;;4795531;29;20047;-74
2021/03/31 10:15:03;;;;;;;4.68;2.20;;;20.80;76.20;;;;;;4796409;29;20103;-74
2021/03/31 10:17:32;;;;;;;7.70;2.50;;;20.90;75.20;;;;;;4806810;29;20078;-74
2021/03/31 10:20:09;;;;;;;3.67;2.30;;;21.10;73.70;;;;;;4796427;29;20134;-75
2021/03/31 10:22:37;;;;;;;;;;;21.20;73.10;;;;;;4809639;29;20065;-74
2021/03/31 10:25:26;;;;;;;6.75;2.47;;;21.20;74.20;;;;;;4812797;29;20391;-74
2021/03/31 10:28:33;;;;;;;4.22;2.50;;;21.50;73.40;;;;;;4815217;29;20054;-74
2021/03/31 10:31:22;;;;;;;6.03;2.50;;;21.60;72.40;;;;;;4809832;29;20054;-74
2021/03/31 10:34:10;;;;;;;4.97;2.05;;;21.80;71.30;;;;;;4811012;29;20100;-74
2021/03/31 10:36:52;;;;;;;4.57;2.65;;;21.70;71.20;;;;;;4806398;29;20075;-74
2021/03/31 10:49:50;;;;;;;4.97;1.83;;;22.60;67.10;;;;;;4808836;29;20523;-74
2021/03/31 10:52:22;;;;;;;2.30;1.50;;;22.80;66.60;;;;;;4811293;29;20042;-74
2021/03/31 10:54:52;;;;;;;2.17;1.30;;;22.90;65.50;;;;;;4822152;29;20074;-74
2021/03/31 10:57:19;;;;;;;10.52;2.35;;;23.10;65.10;;;;;;4814868;29;20042;-74
2021/03/31 10:59:46;;;;;;;3.17;1.60;;;23.20;65.00;;;;;;4810995;29;20129;-74
2021/03/31 11:02:14;;;;;;;1.85;1.20;;;23.10;63.40;;;;;;4810458;29;20053;-75
2021/03/31 11:04:43;;;;;;;3.83;2.13;;;23.10;62.60;;;;;;4809518;29;20137;-75
2021/03/31 11:07:11;;;;;;;2.85;1.80;;;23.30;62.90;;;;;;4812367;29;20161;-76
2021/03/31 11:09:40;;;;;;;2.47;1.40;;;23.20;63.00;;;;;;4808769;29;20482;-75
2021/03/31 11:12:09;;;;;;;2.35;1.40;;;23.50;63.00;;;;;;4815228;29;20466;-74
2021/03/31 11:14:37;;;;;;;2.42;1.30;;;23.60;62.60;;;;;;4808484;29;20270;-74
2021/03/31 11:17:07;;;;;;;4.68;1.40;;;23.80;63.30;;;;;;4825818;29;20070;-73
2021/03/31 11:25:36;;;;;;;2.33;1.20;;;24.20;63.20;;;;;;4801402;29;20066;-74
2021/03/31 11:27:37;;;;;;;1.88;1.35;;;24.30;61.60;;;;;;4794966;29;20184;-74
2021/03/31 11:30:07;;;;;;;2.58;1.13;;;24.50;62.10;;;;;;4804377;29;20513;-75
2021/03/31 11:32:35;;;;;;;2.05;1.00;;;24.50;61.70;;;;;;4792272;29;20145;-73
2021/03/31 11:35:03;;;;;;;2.38;1.15;;;24.60;61.30;;;;;;4793471;29;20061;-75
2021/03/31 11:37:30;;;;;;;2.85;0.95;;;24.70;61.20;;;;;;4795477;29;20067;-75
2021/03/31 11:39:57;;;;;;;1.30;1.00;;;24.70;60.60;;;;;;4811571;29;20046;-75
2021/03/31 11:42:25;;;;;;;4.35;2.90;;;24.60;61.10;;;;;;4789770;29;20058;-75
2021/03/31 11:44:53;;;;;;;1.58;0.85;;;24.60;61.20;;;;;;4793937;29;20580;-75
2021/03/31 11:47:20;;;;;;;2.28;1.27;;;24.90;60.40;;;;;;4792923;29;20047;-74
2021/03/31 11:49:48;;;;;;;5.50;1.00;;;25.20;59.80;;;;;;4794498;29;20042;-75
2021/03/31 11:52:15;;;;;;;2.25;0.80;;;25.20;58.70;;;;;;4793389;29;20050;-74
2021/03/31 11:54:43;;;;;;;2.30;0.77;;;25.20;58.50;;;;;;4793419;29;20130;-74
2021/03/31 11:57:10;;;;;;;2.50;1.10;;;25.30;58.80;;;;;;4791708;29;20082;-74
2021/03/31 11:59:38;;;;;;;1.65;1.00;;;25.40;58.50;;;;;;4792889;29;20047;-75
2021/03/31 12:02:07;;;;;;;3.10;1.15;;;25.50;59.40;;;;;;4794212;29;20054;-75
2021/03/31 12:04:34;;;;;;;3.13;0.82;;;25.60;58.00;;;;;;4789656;29;20552;-74
2021/03/31 12:07:04;;;;;;;1.13;0.50;;;25.70;58.50;;;;;;4791083;29;20750;-74
2021/03/31 12:09:31;;;;;;;1.88;0.77;;;25.70;58.40;;;;;;4792710;29;20525;-74
2021/03/31 12:11:59;;;;;;;1.80;0.75;;;25.70;59.60;;;;;;4792311;29;20187;-75
2021/03/31 12:14:26;;;;;;;1.70;0.80;;;25.90;58.60;;;;;;4794736;29;20535;-74
2021/03/31 12:16:54;;;;;;;1.15;0.75;;;25.90;57.80;;;;;;4790831;29;20410;-74
2021/03/31 12:19:23;;;;;;;1.52;0.70;;;25.90;58.30;;;;;;4792641;29;20367;-74
2021/03/31 12:21:50;;;;;;;3.15;1.20;;;26.00;57.90;;;;;;4797093;29;20125;-74
2021/03/31 12:24:18;;;;;;;2.17;0.50;;;26.10;58.10;;;;;;4814401;29;20540;-74
2021/03/31 12:26:45;;;;;;;2.80;0.85;;;26.30;57.50;;;;;;4800405;29;20142;-74
2021/03/31 12:29:13;;;;;;;1.75;0.80;;;26.40;57.30;;;;;;4812873;29;20050;-75
2021/03/31 12:31:40;;;;;;;2.88;1.00;;;26.30;57.30;;;;;;4810101;29;20050;-74
2021/03/31 12:34:07;;;;;;;2.90;1.00;;;26.50;57.00;;;;;;4824106;29;20674;-75
2021/03/31 12:36:36;;;;;;;1.60;1.15;;;26.80;57.70;;;;;;4809860;29;20730;-75
2021/03/31 12:39:04;;;;;;;1.85;1.05;;;26.70;57.20;;;;;;4809819;29;20622;-75
2021/03/31 12:41:33;;;;;;;3.55;0.98;;;26.80;57.20;;;;;;4807553;29;20495;-74
2021/03/31 12:44:01;;;;;;;2.80;1.23;;;26.90;56.40;;;;;;4811406;29;20342;-75
2021/03/31 12:46:30;;;;;;;3.03;1.00;;;26.90;56.80;;;;;;4809936;29;20051;-75
2021/03/31 12:48:57;;;;;;;2.60;1.23;;;26.90;56.90;;;;;;4813026;29;20514;-75
2021/03/31 12:51:33;;;;;;;1.77;1.08;;;27.00;57.00;;;;;;4811164;29;20050;-74
2021/03/31 12:56:30;;;;;;;2.40;1.00;;;27.30;56.00;;;;;;4812933;29;20095;-74
2021/03/31 12:58:57;;;;;;;1.27;0.90;;;27.40;55.80;;;;;;4812047;29;20046;-73
2021/03/31 13:01:26;;;;;;;1.75;1.05;;;27.40;56.10;;;;;;4817521;29;20961;-74
2021/03/31 13:03:54;;;;;;;1.80;1.17;;;27.40;55.90;;;;;;4811662;29;20053;-74
2021/03/31 13:06:24;;;;;;;1.85;1.10;;;27.40;56.80;;;;;;4815370;29;20043;-74
2021/03/31 13:08:55;;;;;;;2.55;1.10;;;27.40;56.10;;;;;;4810018;29;20145;-75
2021/03/31 13:11:44;;;;;;;2.20;1.00;;;27.50;55.10;;;;;;4810580;29;20122;-76
2021/03/31 13:17:09;;;;;;;2.80;1.50;;;27.60;55.30;;;;;;4808376;29;20096;-76
2021/03/31 13:22:59;;;;;;;3.17;0.80;;;27.50;56.30;;;;;;4824369;29;20065;-74
2021/03/31 13:25:30;;;;;;;3.55;1.00;;;27.60;56.10;;;;;;4833413;29;20118;-76
2021/03/31 13:30:39;;;;;;;3.40;1.00;;;27.90;55.20;;;;;;4827154;29;20051;-76
2021/03/31 13:40:32;;;;;;;1.65;0.80;;;27.60;54.80;;;;;;4829919;29;20050;-78